Time;durP1;ratioP1;P1;durP2;ratioP2;P2;SDS_P1;SDS_P2;PMS_P1;PMS_P2;Temp;Humidity;BMP_temperature;BMP_pressure;BME280_temperature;BME280_humidity;BME280_pressure;Samples;Min_cycle;Max_cycle;Signal;HPM_P1;HPM_P2
2023/06/27 00:00:13;;;;;;;10.30;2.13;;;16.70;99.90;;;;;;5013076;28;20171;-86
2023/06/27 00:02:40;;;;;;;6.05;2.10;;;16.70;99.90;;;;;;5013310;28;20212;-87
2023/06/27 00:05:07;;;;;;;5.68;1.92;;;16.60;99.90;;;;;;5012587;28;20190;-85
2023/06/27 00:07:33;;;;;;;6.72;2.08;;;16.60;99.90;;;;;;5013999;28;20580;-86
2023/06/27 00:09:59;;;;;;;10.32;2.20;;;16.60;99.90;;;;;;5013152;28;20693;-87
2023/06/27 00:12:24;;;;;;;9.50;2.58;;;16.50;99.90;;;;;;5013144;28;20221;-86
2023/06/27 00:14:50;;;;;;;7.70;1.80;;;16.50;99.90;;;;;;5012107;28;20179;-87
2023/06/27 00:17:16;;;;;;;4.88;1.92;;;16.40;99.90;;;;;;5012724;28;20516;-87
2023/06/27 00:19:46;;;;;;;9.68;2.40;;;16.40;99.90;;;;;;5014493;28;20696;-87
2023/06/27 00:22:11;;;;;;;8.43;2.30;;;16.40;99.90;;;;;;5013587;28;20190;-87
2023/06/27 00:24:39;;;;;;;8.82;2.20;;;16.30;99.90;;;;;;5012624;28;20175;-86
2023/06/27 00:27:06;;;;;;;6.80;1.80;;;16.30;99.90;;;;;;5013203;28;20179;-86
2023/06/27 00:29:33;;;;;;;12.57;2.10;;;16.30;99.90;;;;;;5014352;28;20164;-86
2023/06/27 00:31:59;;;;;;;8.32;2.00;;;16.30;99.90;;;;;;5013201;28;20221;-87
2023/06/27 00:34:24;;;;;;;5.30;1.65;;;16.20;99.90;;;;;;5012533;28;20182;-86
2023/06/27 00:36:51;;;;;;;8.15;1.85;;;16.20;99.90;;;;;;5014444;28;20202;-87
2023/06/27 00:39:17;;;;;;;6.90;1.88;;;16.20;99.90;;;;;;5014810;28;20168;-86
2023/06/27 00:41:42;;;;;;;5.95;1.45;;;16.20;99.90;;;;;;5017051;28;20179;-87
2023/06/27 00:44:08;;;;;;;9.50;2.38;;;16.10;99.90;;;;;;5016265;28;20651;-86
2023/06/27 00:46:40;;;;;;;4.97;1.70;;;16.00;99.90;;;;;;5017289;28;20187;-86
2023/06/27 00:49:08;;;;;;;8.52;1.90;;;16.00;99.90;;;;;;5018329;28;20160;-86
2023/06/27 00:51:34;;;;;;;8.63;2.28;;;15.90;99.90;;;;;;5016903;28;20237;-85
2023/06/27 00:54:00;;;;;;;5.38;1.98;;;15.90;99.90;;;;;;5016459;28;20622;-85
2023/06/27 00:56:27;;;;;;;9.15;1.90;;;15.90;99.90;;;;;;5016541;28;20190;-86
2023/06/27 00:59:03;;;;;;;9.05;1.85;;;15.80;99.90;;;;;;5016981;28;20237;-86
2023/06/27 01:01:31;;;;;;;6.18;1.98;;;15.80;99.90;;;;;;5016940;28;20229;-87
2023/06/27 01:03:57;;;;;;;9.30;2.13;;;15.80;99.90;;;;;;5016320;28;20244;-88
2023/06/27 01:07:00;;;;;;;5.20;1.90;;;15.80;99.90;;;;;;5018195;28;20222;-86
2023/06/27 01:09:55;;;;;;;8.20;1.80;;;15.70;99.90;;;;;;5016613;28;20625;-87
2023/06/27 01:12:34;;;;;;;10.93;2.20;;;15.70;99.90;;;;;;5008332;28;20225;-87
2023/06/27 01:15:01;;;;;;;7.50;1.85;;;15.60;99.90;;;;;;5016384;28;20198;-85
2023/06/27 01:17:32;;;;;;;6.15;1.83;;;15.60;99.90;;;;;;5016552;28;20502;-87
2023/06/27 01:20:00;;;;;;;7.38;2.10;;;15.60;99.90;;;;;;5016669;28;20172;-86
2023/06/27 01:22:53;;;;;;;11.88;2.17;;;15.60;99.90;;;;;;5017773;28;20253;-87
2023/06/27 01:25:19;;;;;;;9.02;2.05;;;15.60;99.90;;;;;;5017384;28;20187;-86
2023/06/27 01:27:44;;;;;;;9.93;2.10;;;15.50;99.90;;;;;;5016102;28;20179;-86
2023/06/27 01:30:11;;;;;;;10.75;2.10;;;15.50;99.90;;;;;;5016321;28;20266;-86
2023/06/27 01:32:36;;;;;;;9.82;2.47;;;15.50;99.90;;;;;;5016432;28;20211;-87
2023/06/27 01:35:08;;;;;;;13.50;2.40;;;15.40;99.90;;;;;;5015853;28;20290;-86
2023/06/27 01:37:52;;;;;;;9.90;2.10;;;15.40;99.90;;;;;;5016527;28;20633;-87
2023/06/27 01:40:20;;;;;;;10.25;2.15;;;15.40;99.90;;;;;;5017452;28;20160;-87
2023/06/27 01:43:03;;;;;;;11.70;2.20;;;15.40;99.90;;;;;;5016334;28;20175;-86
2023/06/27 01:45:30;;;;;;;9.45;2.42;;;15.40;99.90;;;;;;5015209;28;20226;-87
2023/06/27 01:47:58;;;;;;;9.27;1.98;;;15.30;99.90;;;;;;5016635;28;20190;-87
2023/06/27 01:50:24;;;;;;;8.68;2.38;;;15.20;99.90;;;;;;5015753;28;20230;-85
2023/06/27 01:52:50;;;;;;;10.02;2.15;;;15.20;99.90;;;;;;5015576;28;20203;-86
2023/06/27 01:55:15;;;;;;;7.75;2.10;;;15.20;99.90;;;;;;5015246;28;20187;-87
2023/06/27 01:57:45;;;;;;;6.60;2.13;;;15.20;99.90;;;;;;5016039;28;20175;-87
2023/06/27 02:00:11;;;;;;;4.78;1.85;;;15.20;99.90;;;;;;5017285;28;20191;-86
2023/06/27 02:02:37;;;;;;;8.00;2.75;;;15.20;99.90;;;;;;5015856;28;20233;-88
2023/06/27 02:05:03;;;;;;;9.13;2.45;;;15.10;99.90;;;;;;5015361;28;20195;-87
2023/06/27 02:07:28;;;;;;;8.77;2.38;;;15.10;99.90;;;;;;5015787;28;20175;-85
2023/06/27 02:09:54;;;;;;;8.77;2.28;;;15.10;99.90;;;;;;5016070;28;20183;-86
2023/06/27 02:12:20;;;;;;;4.40;1.85;;;15.10;99.90;;;;;;5016757;28;20210;-86
2023/06/27 02:14:45;;;;;;;6.95;2.00;;;15.10;99.90;;;;;;5015143;28;20190;-87
2023/06/27 02:17:11;;;;;;;6.85;2.10;;;15.00;99.90;;;;;;5015674;28;20222;-87
2023/06/27 02:19:36;;;;;;;11.65;2.13;;;15.00;99.90;;;;;;5016103;28;20187;-87
2023/06/27 02:22:02;;;;;;;11.15;1.92;;;15.00;99.90;;;;;;5015592;28;20190;-86
2023/06/27 02:24:28;;;;;;;6.85;2.28;;;14.90;99.90;;;;;;5015643;28;20179;-87
2023/06/27 02:26:55;;;;;;;9.35;2.30;;;14.90;99.90;;;;;;5015486;28;20186;-85
2023/06/27 02:29:21;;;;;;;6.43;2.17;;;14.90;99.90;;;;;;5016312;28;20190;-87
2023/06/27 02:31:47;;;;;;;7.55;2.28;;;14.90;99.90;;;;;;5016735;28;20203;-87
2023/06/27 02:34:12;;;;;;;6.35;2.00;;;14.80;99.90;;;;;;5015588;28;20294;-87
2023/06/27 02:36:38;;;;;;;8.77;2.38;;;14.80;99.90;;;;;;5015343;28;20191;-85
2023/06/27 02:39:04;;;;;;;6.65;1.90;;;14.80;99.90;;;;;;5014879;28;20290;-86
2023/06/27 02:41:29;;;;;;;7.60;2.05;;;14.70;99.90;;;;;;5015195;28;20194;-86
2023/06/27 02:43:55;;;;;;;10.40;2.38;;;14.70;99.90;;;;;;5014993;28;20734;-88
2023/06/27 02:46:21;;;;;;;6.78;2.20;;;14.60;99.90;;;;;;5015317;28;20176;-87
2023/06/27 02:48:46;;;;;;;6.30;1.70;;;14.60;99.90;;;;;;5014535;28;20184;-88
2023/06/27 02:51:12;;;;;;;5.43;1.90;;;14.60;99.90;;;;;;5014837;28;20199;-86
2023/06/27 02:53:38;;;;;;;6.00;2.20;;;14.60;99.90;;;;;;5015066;28;20194;-87
2023/06/27 02:56:04;;;;;;;8.15;2.25;;;14.60;99.90;;;;;;5015546;28;20191;-87
2023/06/27 02:58:30;;;;;;;5.40;1.95;;;14.60;99.90;;;;;;5014686;28;20559;-87
2023/06/27 03:00:58;;;;;;;8.70;2.70;;;14.60;99.90;;;;;;5014420;28;20179;-85
2023/06/27 03:03:24;;;;;;;11.00;2.17;;;14.50;99.90;;;;;;5014378;28;20183;-86
2023/06/27 03:05:50;;;;;;;10.30;2.47;;;14.50;99.90;;;;;;5014757;28;20241;-87
2023/06/27 03:08:17;;;;;;;9.98;2.33;;;14.50;99.90;;;;;;5014505;28;20637;-88
2023/06/27 03:10:43;;;;;;;8.57;2.13;;;14.50;99.90;;;;;;5014771;28;20221;-86
2023/06/27 03:13:08;;;;;;;8.32;2.03;;;14.50;99.90;;;;;;5015841;28;20211;-87
2023/06/27 03:15:34;;;;;;;10.45;2.10;;;14.40;99.90;;;;;;5014339;28;20186;-87
2023/06/27 03:18:01;;;;;;;5.50;2.13;;;14.40;99.90;;;;;;5013931;28;20186;-87
2023/06/27 03:20:27;;;;;;;3.80;2.10;;;14.40;99.90;;;;;;5014146;28;20528;-85
2023/06/27 03:22:52;;;;;;;8.43;2.15;;;14.40;99.90;;;;;;5013908;28;20183;-87
2023/06/27 03:25:18;;;;;;;7.88;2.40;;;14.40;99.90;;;;;;5015317;28;20238;-87
2023/06/27 03:27:45;;;;;;;8.63;2.22;;;14.40;99.90;;;;;;5013535;28;20190;-87
2023/06/27 03:30:12;;;;;;;7.65;2.42;;;14.40;99.90;;;;;;5014474;28;20179;-87
2023/06/27 03:32:38;;;;;;;6.70;2.53;;;14.40;99.90;;;;;;5014314;28;20226;-87
2023/06/27 03:35:05;;;;;;;13.27;3.40;;;14.40;99.90;;;;;;5013584;28;20587;-86
2023/06/27 03:37:30;;;;;;;11.68;2.50;;;14.40;99.90;;;;;;5013442;28;20193;-86
2023/06/27 03:39:56;;;;;;;11.15;2.63;;;14.40;99.90;;;;;;5014347;28;20172;-88
2023/06/27 03:42:23;;;;;;;8.40;2.58;;;14.40;99.90;;;;;;5014595;28;20648;-89
2023/06/27 03:44:49;;;;;;;8.05;3.00;;;14.40;99.90;;;;;;5013822;28;20230;-89
2023/06/27 03:47:16;;;;;;;10.07;2.40;;;14.40;99.90;;;;;;5014251;28;20187;-88
2023/06/27 03:49:42;;;;;;;7.72;2.40;;;14.40;99.90;;;;;;5014544;28;20237;-88
2023/06/27 03:52:07;;;;;;;9.43;2.42;;;14.40;99.90;;;;;;5014472;28;20661;-88
2023/06/27 03:54:33;;;;;;;7.35;2.40;;;14.40;99.90;;;;;;5013690;28;20209;-88
2023/06/27 03:57:11;;;;;;;8.68;2.63;;;14.50;99.90;;;;;;5013605;28;20183;-88
2023/06/27 03:59:37;;;;;;;8.00;2.40;;;14.50;99.90;;;;;;5014024;28;20226;-88
2023/06/27 04:02:02;;;;;;;7.07;2.20;;;14.50;99.90;;;;;;5014284;28;20183;-88
2023/06/27 04:04:28;;;;;;;5.78;2.38;;;14.50;99.90;;;;;;5013737;28;20185;-88
2023/06/27 04:06:55;;;;;;;8.05;2.20;;;14.50;99.90;;;;;;5014317;28;20198;-88
2023/06/27 04:09:21;;;;;;;6.70;1.90;;;14.50;99.90;;;;;;5013932;28;20183;-88
2023/06/27 04:11:46;;;;;;;10.40;2.63;;;14.50;99.90;;;;;;5013968;28;20214;-88
2023/06/27 04:14:17;;;;;;;10.57;2.50;;;14.50;99.90;;;;;;5014047;28;20206;-88
2023/06/27 04:16:43;;;;;;;8.68;2.35;;;14.50;99.90;;;;;;5013516;28;20188;-86
2023/06/27 04:19:09;;;;;;;9.95;2.42;;;14.50;99.90;;;;;;5013932;28;20191;-86
2023/06/27 04:21:35;;;;;;;9.18;2.10;;;14.60;99.90;;;;;;5014142;28;20202;-88
2023/06/27 04:24:00;;;;;;;8.45;2.45;;;14.60;99.90;;;;;;5014033;28;20182;-89
2023/06/27 04:26:26;;;;;;;10.82;2.55;;;14.60;99.90;;;;;;5013604;28;20214;-89
2023/06/27 04:29:05;;;;;;;4.32;2.22;;;14.70;99.90;;;;;;5014139;28;20602;-89
2023/06/27 04:31:32;;;;;;;4.78;2.17;;;14.60;99.90;;;;;;5013799;28;20206;-88
2023/06/27 04:33:59;;;;;;;7.22;2.20;;;14.60;99.90;;;;;;5013777;28;20277;-88
2023/06/27 04:36:26;;;;;;;8.88;2.33;;;14.70;99.90;;;;;;5014042;28;20187;-89
2023/06/27 04:38:54;;;;;;;6.28;2.08;;;14.80;99.90;;;;;;5014304;28;20211;-89
2023/06/27 04:41:19;;;;;;;7.55;2.13;;;14.90;99.90;;;;;;5013395;28;20689;-88
2023/06/27 04:43:45;;;;;;;7.57;2.20;;;15.00;99.90;;;;;;5011833;28;20278;-88
2023/06/27 04:46:11;;;;;;;9.10;1.92;;;15.10;99.90;;;;;;5011901;28;20226;-88
2023/06/27 04:48:36;;;;;;;12.10;2.28;;;15.20;99.90;;;;;;5012524;28;20176;-88
2023/06/27 04:51:03;;;;;;;4.55;1.58;;;15.30;99.90;;;;;;5014072;28;20286;-89
2023/06/27 04:53:30;;;;;;;6.70;1.80;;;15.50;99.90;;;;;;5012631;28;20217;-89
2023/06/27 04:55:56;;;;;;;4.97;1.95;;;15.60;99.90;;;;;;4992964;28;20680;-89
2023/06/27 04:58:21;;;;;;;4.93;1.83;;;15.60;99.90;;;;;;5009483;28;20183;-88
2023/06/27 05:00:48;;;;;;;6.32;1.95;;;15.70;99.90;;;;;;5009742;28;20203;-90
2023/06/27 05:03:14;;;;;;;7.93;2.00;;;15.80;99.90;;;;;;4997868;28;20207;-87
2023/06/27 05:05:40;;;;;;;6.03;1.60;;;15.80;99.90;;;;;;5013053;28;20638;-88
2023/06/27 05:08:07;;;;;;;4.57;1.77;;;15.90;99.90;;;;;;5013077;28;20229;-89
2023/06/27 05:10:34;;;;;;;5.75;1.77;;;15.80;99.90;;;;;;5013271;28;20550;-89
2023/06/27 05:13:00;;;;;;;7.20;1.70;;;15.90;99.90;;;;;;5012805;28;20211;-89
2023/06/27 05:15:26;;;;;;;6.50;1.90;;;15.90;99.90;;;;;;5014413;28;20170;-88
2023/06/27 05:17:54;;;;;;;4.57;1.73;;;16.00;99.90;;;;;;5013684;28;20185;-88
2023/06/27 05:20:20;;;;;;;4.15;1.60;;;16.00;99.90;;;;;;5012705;28;20221;-86
2023/06/27 05:22:46;;;;;;;6.43;1.90;;;16.00;99.90;;;;;;5012499;28;20175;-87
2023/06/27 05:25:12;;;;;;;4.38;1.63;;;16.00;99.90;;;;;;5013755;28;20274;-86
2023/06/27 05:27:38;;;;;;;6.18;2.17;;;16.10;99.90;;;;;;5016011;28;20632;-86
2023/06/27 05:30:05;;;;;;;5.50;1.45;;;16.10;99.90;;;;;;5016215;28;20179;-87
2023/06/27 05:32:30;;;;;;;6.38;1.77;;;16.10;99.90;;;;;;5015772;28;20658;-87
2023/06/27 05:34:56;;;;;;;5.13;1.70;;;16.20;99.90;;;;;;5016103;28;20171;-86
2023/06/27 05:37:22;;;;;;;6.93;2.33;;;16.20;99.90;;;;;;5016159;28;20179;-87
2023/06/27 05:39:47;;;;;;;6.22;1.45;;;16.30;99.90;;;;;;5016837;28;20255;-85
2023/06/27 05:42:13;;;;;;;3.58;1.55;;;16.40;99.90;;;;;;5015761;28;20676;-87
2023/06/27 05:44:39;;;;;;;5.15;1.60;;;16.40;99.90;;;;;;5015665;28;20231;-86
2023/06/27 05:47:05;;;;;;;4.35;1.60;;;16.50;99.90;;;;;;5015676;28;20215;-86
2023/06/27 05:49:31;;;;;;;4.55;1.70;;;16.50;99.90;;;;;;5015956;28;20175;-87
2023/06/27 05:51:57;;;;;;;5.47;1.83;;;16.50;99.90;;;;;;5015583;28;20203;-85
2023/06/27 05:54:23;;;;;;;5.07;1.40;;;16.50;99.90;;;;;;5015444;28;20179;-86
2023/06/27 05:56:49;;;;;;;5.10;1.50;;;16.50;99.90;;;;;;5015450;28;20286;-89
2023/06/27 05:59:15;;;;;;;3.53;1.50;;;16.60;99.90;;;;;;5015523;28;20202;-88
2023/06/27 06:01:40;;;;;;;4.60;1.70;;;16.60;99.90;;;;;;5016885;28;20210;-87
2023/06/27 06:04:06;;;;;;;6.05;1.65;;;16.80;99.90;;;;;;5017152;28;20207;-88
2023/06/27 06:06:38;;;;;;;5.03;1.80;;;16.80;99.90;;;;;;5015497;28;20183;-88
2023/06/27 06:09:05;;;;;;;2.90;1.20;;;16.80;99.90;;;;;;5016613;28;20167;-87
2023/06/27 06:11:34;;;;;;;5.88;1.85;;;16.90;99.90;;;;;;5015336;28;20595;-86
2023/06/27 06:14:01;;;;;;;3.88;1.40;;;16.90;99.90;;;;;;5016679;28;20171;-86
2023/06/27 06:16:27;;;;;;;7.85;1.50;;;17.00;99.90;;;;;;5015564;28;20621;-87
2023/06/27 06:18:53;;;;;;;4.85;1.55;;;17.10;99.90;;;;;;5015152;28;20651;-87
2023/06/27 06:21:19;;;;;;;4.75;1.90;;;17.10;99.90;;;;;;5016422;28;20178;-88
2023/06/27 06:23:45;;;;;;;6.38;1.92;;;17.20;99.90;;;;;;5015089;28;20179;-86
2023/06/27 06:26:11;;;;;;;10.02;1.73;;;17.30;99.90;;;;;;5015328;28;20183;-87
2023/06/27 06:28:37;;;;;;;8.35;1.80;;;17.30;99.90;;;;;;5015317;28;20175;-88
2023/06/27 06:31:04;;;;;;;7.75;2.05;;;17.30;99.90;;;;;;5015444;28;20260;-89
2023/06/27 06:33:30;;;;;;;6.32;1.45;;;17.50;99.90;;;;;;5015031;28;20179;-89
2023/06/27 06:35:56;;;;;;;8.05;1.77;;;17.40;99.90;;;;;;5014721;28;20275;-87
2023/06/27 06:38:22;;;;;;;5.15;1.48;;;17.50;99.90;;;;;;5014695;28;20216;-86
2023/06/27 06:40:47;;;;;;;6.88;1.80;;;17.60;99.90;;;;;;5014745;28;20183;-87
2023/06/27 06:43:13;;;;;;;5.10;1.70;;;17.70;99.90;;;;;;5014797;28;20203;-88
2023/06/27 06:45:39;;;;;;;5.15;1.80;;;17.70;99.90;;;;;;5016089;28;20257;-88
2023/06/27 06:48:05;;;;;;;5.53;1.60;;;17.80;99.90;;;;;;5014905;28;20190;-86
2023/06/27 06:50:32;;;;;;;7.93;1.50;;;17.90;99.90;;;;;;5014501;28;20179;-86
2023/06/27 06:52:57;;;;;;;3.38;1.30;;;18.00;99.90;;;;;;5014452;28;20684;-89
2023/06/27 06:55:23;;;;;;;3.83;1.25;;;18.00;99.90;;;;;;5014740;28;20211;-87
2023/06/27 06:57:49;;;;;;;5.03;1.50;;;18.10;99.90;;;;;;5014842;28;20270;-88
2023/06/27 07:00:17;;;;;;;6.00;1.42;;;18.20;99.90;;;;;;5016121;28;20613;-86
2023/06/27 07:02:43;;;;;;;2.50;1.20;;;18.40;99.90;;;;;;5014991;28;20532;-88
2023/06/27 07:05:10;;;;;;;8.25;1.98;;;18.50;99.90;;;;;;5014422;28;20185;-87
2023/06/27 07:07:36;;;;;;;4.55;1.38;;;18.40;99.90;;;;;;5014351;28;20590;-85
2023/06/27 07:10:01;;;;;;;4.82;1.40;;;18.40;99.90;;;;;;5014484;28;20199;-89
2023/06/27 07:12:27;;;;;;;4.78;1.40;;;18.50;99.90;;;;;;5014189;28;20210;-89
2023/06/27 07:14:53;;;;;;;4.68;1.42;;;18.60;99.90;;;;;;5014561;28;20263;-89
2023/06/27 07:17:18;;;;;;;7.68;1.42;;;18.70;99.90;;;;;;5014316;28;20190;-88
2023/06/27 07:19:44;;;;;;;3.17;1.35;;;18.70;99.90;;;;;;5014207;28;20182;-89
2023/06/27 07:22:10;;;;;;;2.13;0.88;;;18.70;99.90;;;;;;5014186;28;20194;-89
2023/06/27 07:24:36;;;;;;;6.43;1.42;;;18.80;99.90;;;;;;5009596;28;20179;-88
2023/06/27 07:27:02;;;;;;;3.40;1.02;;;19.10;99.90;;;;;;5014654;28;20495;-88
2023/06/27 07:29:28;;;;;;;4.32;1.35;;;19.20;99.90;;;;;;5014870;28;20194;-87
2023/06/27 07:31:54;;;;;;;5.50;1.20;;;19.20;99.90;;;;;;5014799;28;20211;-84
2023/06/27 07:34:20;;;;;;;3.92;1.40;;;19.40;99.90;;;;;;5014397;28;20203;-89
2023/06/27 07:36:47;;;;;;;2.45;1.20;;;19.50;99.90;;;;;;5013878;28;20184;-87
2023/06/27 07:39:13;;;;;;;5.70;1.30;;;19.60;99.90;;;;;;5013857;28;20595;-89
2023/06/27 07:41:39;;;;;;;7.10;1.30;;;19.50;99.90;;;;;;5014939;28;20171;-88
2023/06/27 07:44:05;;;;;;;3.58;1.10;;;19.40;99.90;;;;;;5013800;28;20305;-90
2023/06/27 07:46:30;;;;;;;3.58;1.40;;;19.40;99.90;;;;;;5012332;28;20203;-88
2023/06/27 07:48:59;;;;;;;4.30;1.40;;;19.50;99.90;;;;;;5014353;28;20171;-87
2023/06/27 07:51:26;;;;;;;4.25;1.40;;;19.60;99.90;;;;;;5013503;28;20215;-89
2023/06/27 07:53:52;;;;;;;5.05;1.33;;;19.80;99.90;;;;;;5015052;28;20187;-88
2023/06/27 07:56:19;;;;;;;4.60;1.02;;;19.90;99.90;;;;;;5013886;28;20197;-88
2023/06/27 07:58:44;;;;;;;4.07;1.42;;;20.00;99.90;;;;;;5013588;28;20179;-88
2023/06/27 08:01:11;;;;;;;10.73;1.40;;;20.00;99.90;;;;;;5013464;28;20687;-88
2023/06/27 08:03:36;;;;;;;5.28;1.30;;;19.80;99.90;;;;;;5013380;28;20601;-89
2023/06/27 08:06:06;;;;;;;4.43;1.20;;;19.60;99.90;;;;;;5013836;28;20195;-86
2023/06/27 08:08:31;;;;;;;7.43;1.13;;;19.60;99.90;;;;;;5013701;28;20521;-89
2023/06/27 08:10:57;;;;;;;3.10;0.98;;;19.70;99.90;;;;;;5013611;28;20171;-89
2023/06/27 08:13:24;;;;;;;4.13;1.02;;;19.70;99.90;;;;;;5013420;28;20306;-88
2023/06/27 08:15:49;;;;;;;5.47;1.30;;;19.60;99.90;;;;;;5014499;28;20172;-85
2023/06/27 08:18:15;;;;;;;4.90;1.20;;;19.60;99.90;;;;;;5013337;28;20614;-87
2023/06/27 08:20:41;;;;;;;2.90;1.17;;;19.50;99.90;;;;;;5013162;28;20596;-86
2023/06/27 08:23:07;;;;;;;3.10;1.05;;;19.30;99.90;;;;;;5014404;28;20226;-87
2023/06/27 08:25:33;;;;;;;3.45;0.98;;;19.40;99.90;;;;;;5013233;28;20618;-86
2023/06/27 08:27:59;;;;;;;4.32;1.20;;;19.50;99.90;;;;;;5014343;28;20218;-87
2023/06/27 08:30:29;;;;;;;3.85;1.50;;;19.80;99.90;;;;;;5014145;28;20237;-87
2023/06/27 08:32:56;;;;;;;4.57;1.30;;;20.20;99.90;;;;;;5013102;28;20211;-88
2023/06/27 08:35:22;;;;;;;6.07;1.40;;;20.40;99.90;;;;;;5012959;28;20187;-88
2023/06/27 08:37:47;;;;;;;3.05;1.20;;;20.70;99.90;;;;;;5014408;28;20532;-87
2023/06/27 08:40:24;;;;;;;3.75;1.33;;;20.70;99.30;;;;;;5013135;28;20578;-88
2023/06/27 08:42:50;;;;;;;4.25;0.90;;;20.70;99.90;;;;;;5012946;28;20197;-86
2023/06/27 08:45:16;;;;;;;5.63;1.20;;;20.40;98.60;;;;;;5012723;28;20341;-85
2023/06/27 08:47:46;;;;;;;7.25;1.13;;;20.40;98.10;;;;;;5012885;28;20688;-89
2023/06/27 08:52:53;;;;;;;2.45;0.80;;;20.30;98.30;;;;;;4700110;23;20329;-85
2023/06/27 08:55:25;;;;;;;4.90;1.27;;;20.10;98.70;;;;;;4939235;23;21909;-86
2023/06/27 08:57:53;;;;;;;4.57;1.20;;;19.90;98.70;;;;;;4993517;28;20196;-87
2023/06/27 09:00:22;;;;;;;2.83;1.10;;;19.60;99.20;;;;;;4996587;28;20238;-87
2023/06/27 09:02:48;;;;;;;2.90;1.27;;;19.40;99.90;;;;;;4997602;28;20502;-89
2023/06/27 09:05:15;;;;;;;4.13;1.20;;;19.50;99.90;;;;;;4998102;28;20176;-89
2023/06/27 09:07:42;;;;;;;4.88;1.10;;;19.90;99.90;;;;;;4991824;28;20536;-88
2023/06/27 09:10:09;;;;;;;5.80;1.20;;;20.40;98.90;;;;;;4996971;28;20261;-85
2023/06/27 09:12:37;;;;;;;4.28;0.90;;;20.70;97.60;;;;;;4997848;28;20238;-86
2023/06/27 09:15:04;;;;;;;2.50;1.08;;;20.50;98.00;;;;;;4997401;28;20327;-86
2023/06/27 09:17:32;;;;;;;4.10;1.20;;;20.40;99.00;;;;;;4997284;28;20183;-87
2023/06/27 09:19:57;;;;;;;1.98;0.90;;;20.70;98.60;;;;;;5014035;28;20190;-90
2023/06/27 09:22:23;;;;;;;5.30;1.10;;;21.10;98.10;;;;;;5017198;28;20245;-87
2023/06/27 09:24:49;;;;;;;4.93;1.10;;;21.40;96.70;;;;;;5000753;28;20202;-87
2023/06/27 09:27:31;;;;;;;5.10;1.08;;;21.20;95.70;;;;;;5013642;28;20199;-88
2023/06/27 09:30:02;;;;;;;4.53;1.08;;;21.10;97.50;;;;;;5013799;28;20275;-87
2023/06/27 09:32:28;;;;;;;5.97;1.00;;;20.90;97.70;;;;;;5013594;28;20212;-89
2023/06/27 09:34:54;;;;;;;6.18;1.30;;;20.80;98.50;;;;;;5013932;28;20180;-88
2023/06/27 09:37:28;;;;;;;2.67;0.90;;;20.70;97.60;;;;;;5013755;28;20188;-88
2023/06/27 09:39:54;;;;;;;3.60;1.10;;;20.80;98.50;;;;;;4998223;28;20247;-88
2023/06/27 09:42:20;;;;;;;3.05;0.90;;;20.90;96.40;;;;;;5013688;28;20211;-89
2023/06/27 09:44:46;;;;;;;7.30;1.27;;;20.80;95.90;;;;;;5013202;28;20180;-88
2023/06/27 09:47:12;;;;;;;2.53;1.00;;;20.70;96.20;;;;;;5004143;28;20270;-92
2023/06/27 09:49:43;;;;;;;3.53;1.50;;;20.50;95.00;;;;;;5013092;28;20192;-91
2023/06/27 09:52:13;;;;;;;3.33;0.98;;;20.30;95.50;;;;;;4997048;28;20207;-89
2023/06/27 09:54:45;;;;;;;2.85;1.00;;;20.10;95.70;;;;;;4996853;28;20184;-88
2023/06/27 09:57:31;;;;;;;3.63;1.17;;;20.00;97.20;;;;;;5013826;28;20266;-89
2023/06/27 09:59:57;;;;;;;2.65;1.00;;;19.80;97.50;;;;;;5017673;28;20163;-88
2023/06/27 10:02:28;;;;;;;2.70;0.75;;;20.00;99.20;;;;;;5016334;28;20221;-88
2023/06/27 10:04:53;;;;;;;3.85;0.85;;;20.30;97.20;;;;;;5017578;28;20191;-88
2023/06/27 10:07:20;;;;;;;4.25;0.90;;;20.40;96.00;;;;;;5009433;28;20182;-90
2023/06/27 10:09:46;;;;;;;4.85;0.88;;;20.40;97.30;;;;;;5015041;28;20614;-89
2023/06/27 10:12:14;;;;;;;7.15;0.93;;;20.60;96.40;;;;;;5015752;28;20219;-88
2023/06/27 10:14:42;;;;;;;4.10;1.00;;;20.50;96.00;;;;;;5012687;28;20264;-90
2023/06/27 10:17:18;;;;;;;6.22;1.15;;;20.70;95.40;;;;;;4998829;28;20217;-86
2023/06/27 10:19:45;;;;;;;3.90;0.90;;;20.80;95.10;;;;;;4997741;28;20163;-90
2023/06/27 10:22:14;;;;;;;3.47;0.77;;;20.80;95.90;;;;;;4997840;28;20562;-86
2023/06/27 10:24:41;;;;;;;2.88;1.00;;;20.80;96.40;;;;;;4996411;28;20633;-89
2023/06/27 10:27:09;;;;;;;3.90;0.88;;;21.10;95.00;;;;;;4996542;28;20295;-88
2023/06/27 10:29:40;;;;;;;3.83;0.95;;;21.50;97.40;;;;;;5012610;28;20168;-88
2023/06/27 10:32:08;;;;;;;3.55;1.00;;;21.50;95.10;;;;;;5012862;28;20234;-88
2023/06/27 10:34:44;;;;;;;5.78;1.20;;;21.70;98.00;;;;;;5012716;28;20235;-89
2023/06/27 10:37:24;;;;;;;3.45;1.02;;;22.00;95.20;;;;;;4997861;28;20238;-91
2023/06/27 10:39:58;;;;;;;4.63;0.95;;;22.10;95.80;;;;;;5003256;28;20242;-91
2023/06/27 10:42:23;;;;;;;2.47;1.00;;;22.30;96.10;;;;;;4996430;28;20192;-89
2023/06/27 10:45:04;;;;;;;2.45;1.10;;;22.30;95.00;;;;;;4996043;28;20184;-89
2023/06/27 10:47:34;;;;;;;4.88;1.23;;;22.40;96.10;;;;;;4993192;28;20184;-89
2023/06/27 10:50:09;;;;;;;2.78;0.95;;;22.50;95.00;;;;;;4995785;28;20211;-88
2023/06/27 10:52:35;;;;;;;4.03;1.23;;;22.70;95.30;;;;;;4996047;28;20319;-89
2023/06/27 10:55:18;;;;;;;3.88;1.33;;;22.90;94.70;;;;;;4995512;28;20216;-90
2023/06/27 10:57:48;;;;;;;2.13;0.80;;;23.00;96.10;;;;;;5012530;28;20195;-89
2023/06/27 11:00:25;;;;;;;2.50;0.80;;;23.10;94.00;;;;;;4998297;28;20176;-90
2023/06/27 11:02:54;;;;;;;3.67;0.80;;;22.80;93.40;;;;;;4997917;28;20655;-90
2023/06/27 11:05:34;;;;;;;8.07;1.23;;;22.50;93.50;;;;;;4995913;28;20192;-91
2023/06/27 11:08:13;;;;;;;4.07;1.10;;;22.50;93.70;;;;;;4995981;28;20341;-90
2023/06/27 11:11:01;;;;;;;5.18;0.90;;;22.70;91.90;;;;;;4995051;28;20187;-89
2023/06/27 11:13:35;;;;;;;3.03;1.00;;;22.70;93.00;;;;;;4995424;28;20210;-91
2023/06/27 11:16:02;;;;;;;2.90;0.70;;;22.80;92.10;;;;;;5012320;28;20738;-90
2023/06/27 11:18:28;;;;;;;3.72;0.80;;;23.00;93.70;;;;;;5003160;28;20188;-90
2023/06/27 11:20:55;;;;;;;2.72;1.02;;;23.20;93.10;;;;;;4999152;28;20194;-92
2023/06/27 11:23:21;;;;;;;4.82;1.10;;;23.40;92.00;;;;;;4994785;28;20172;-88
2023/06/27 11:25:48;;;;;;;2.45;0.60;;;23.60;90.80;;;;;;4995397;28;20187;-88
2023/06/27 11:28:18;;;;;;;4.25;0.80;;;23.30;92.20;;;;;;5005533;28;20176;-92
2023/06/27 11:30:45;;;;;;;1.42;0.60;;;23.00;90.60;;;;;;4990884;28;20179;-89
2023/06/27 11:33:13;;;;;;;2.33;0.80;;;22.60;90.80;;;;;;4993342;28;20219;-88
2023/06/27 11:35:42;;;;;;;1.60;0.80;;;22.30;91.10;;;;;;5010412;28;20187;-89
2023/06/27 11:38:15;;;;;;;3.53;1.05;;;22.00;92.20;;;;;;5016013;28;20171;-89
2023/06/27 11:40:51;;;;;;;4.88;0.77;;;21.70;92.60;;;;;;5004285;28;20622;-89
2023/06/27 11:43:18;;;;;;;4.32;0.95;;;21.50;91.80;;;;;;5008922;28;20194;-88
2023/06/27 11:45:48;;;;;;;1.92;0.75;;;21.30;91.90;;;;;;5011438;28;20268;-88
2023/06/27 11:48:14;;;;;;;2.95;1.05;;;21.20;92.00;;;;;;5003190;28;20271;-88
2023/06/27 11:51:15;;;;;;;6.57;1.23;;;21.00;92.80;;;;;;4994706;28;20710;-90
2023/06/27 11:53:50;;;;;;;6.20;1.20;;;20.80;93.90;;;;;;4981647;28;20197;-86
2023/06/27 11:56:17;;;;;;;8.82;1.40;;;20.20;98.10;;;;;;4996046;28;20230;-85
2023/06/27 11:58:59;;;;;;;3.42;1.08;;;19.40;99.90;;;;;;4987860;28;20253;-93
2023/06/27 12:01:26;;;;;;;3.17;0.85;;;18.50;99.90;;;;;;4994465;28;20188;-89
2023/06/27 12:03:52;;;;;;;3.55;1.35;;;17.80;99.90;;;;;;5011226;28;20187;-93
2023/06/27 12:06:26;;;;;;;2.72;0.98;;;17.40;99.90;;;;;;4995036;28;20267;-90
2023/06/27 12:08:55;;;;;;;6.25;1.30;;;17.20;99.90;;;;;;4994021;28;20778;-92
2023/06/27 12:11:36;;;;;;;1.58;0.80;;;17.10;99.90;;;;;;4993384;28;20214;-88
2023/06/27 12:14:03;;;;;;;3.00;1.05;;;17.00;99.90;;;;;;4991445;28;20606;-90
2023/06/27 12:16:33;;;;;;;2.78;1.00;;;17.10;99.90;;;;;;4991535;28;20181;-90
2023/06/27 12:19:05;;;;;;;3.13;1.08;;;17.20;99.90;;;;;;4991513;28;20183;-89
2023/06/27 12:21:31;;;;;;;3.45;0.85;;;17.30;99.90;;;;;;4991410;28;20188;-89
2023/06/27 12:23:57;;;;;;;7.65;1.05;;;17.40;99.90;;;;;;4975042;28;20180;-89
2023/06/27 12:26:22;;;;;;;3.40;1.08;;;17.70;99.90;;;;;;4988418;28;20275;-88
2023/06/27 12:29:02;;;;;;;2.35;1.08;;;18.30;99.90;;;;;;5010390;28;20180;-91
2023/06/27 12:31:28;;;;;;;6.10;1.05;;;18.80;99.90;;;;;;4992389;28;20214;-88
2023/06/27 12:33:54;;;;;;;1.08;0.73;;;19.20;99.90;;;;;;4995686;28;20187;-90
2023/06/27 12:36:24;;;;;;;4.10;0.60;;;19.40;99.90;;;;;;5000288;28;20183;-88
2023/06/27 12:38:54;;;;;;;1.20;0.60;;;19.60;99.90;;;;;;4997265;28;20165;-89
2023/06/27 12:41:21;;;;;;;1.30;0.80;;;19.50;99.90;;;;;;5010586;28;20187;-94
2023/06/27 12:43:47;;;;;;;3.38;0.90;;;19.50;99.90;;;;;;4997008;28;20181;-88
2023/06/27 12:46:14;;;;;;;4.07;1.27;;;19.70;99.90;;;;;;4998199;28;20206;-89
2023/06/27 12:48:43;;;;;;;2.50;1.00;;;19.90;99.90;;;;;;5001672;28;20188;-92
2023/06/27 12:51:11;;;;;;;1.98;0.77;;;20.00;99.90;;;;;;5001053;28;20574;-90